sensor_id;sensor_type;location;lat;lon;timestamp;P1;durP1;ratioP1;P2;durP2;ratioP2
4839;SDS011;2434;48.486;7.964;2022-10-16T00:01:14;6.60;;;1.30;;
4839;SDS011;2434;48.486;7.964;2022-10-16T00:03:46;5.13;;;1.80;;
4839;SDS011;2434;48.486;7.964;2022-10-16T00:06:15;8.17;;;1.80;;
4839;SDS011;2434;48.486;7.964;2022-10-16T00:08:45;3.73;;;1.40;;
4839;SDS011;2434;48.486;7.964;2022-10-16T00:11:15;2.80;;;1.40;;
4839;SDS011;2434;48.486;7.964;2022-10-16T00:13:45;1.97;;;1.47;;
4839;SDS011;2434;48.486;7.964;2022-10-16T00:16:14;4.70;;;1.53;;
4839;SDS011;2434;48.486;7.964;2022-10-16T00:18:43;1.23;;;1.13;;
4839;SDS011;2434;48.486;7.964;2022-10-16T00:21:15;2.60;;;1.63;;
4839;SDS011;2434;48.486;7.964;2022-10-16T00:23:45;6.00;;;1.90;;
4839;SDS011;2434;48.486;7.964;2022-10-16T00:26:14;2.30;;;1.73;;
4839;SDS011;2434;48.486;7.964;2022-10-16T00:28:45;4.97;;;1.20;;
4839;SDS011;2434;48.486;7.964;2022-10-16T00:31:14;7.10;;;1.40;;
4839;SDS011;2434;48.486;7.964;2022-10-16T00:33:43;3.63;;;1.27;;
4839;SDS011;2434;48.486;7.964;2022-10-16T00:36:14;4.10;;;1.30;;
4839;SDS011;2434;48.486;7.964;2022-10-16T00:38:44;2.27;;;1.00;;
4839;SDS011;2434;48.486;7.964;2022-10-16T00:41:15;3.20;;;1.13;;
4839;SDS011;2434;48.486;7.964;2022-10-16T00:43:47;5.37;;;2.40;;
4839;SDS011;2434;48.486;7.964;2022-10-16T00:46:18;4.43;;;1.80;;
4839;SDS011;2434;48.486;7.964;2022-10-16T00:48:49;6.30;;;1.60;;
4839;SDS011;2434;48.486;7.964;2022-10-16T00:51:24;2.37;;;1.13;;
4839;SDS011;2434;48.486;7.964;2022-10-16T00:53:55;3.27;;;1.30;;
4839;SDS011;2434;48.486;7.964;2022-10-16T00:56:24;2.90;;;1.40;;
4839;SDS011;2434;48.486;7.964;2022-10-16T00:58:53;2.70;;;1.20;;
4839;SDS011;2434;48.486;7.964;2022-10-16T01:01:21;3.67;;;1.23;;
4839;SDS011;2434;48.486;7.964;2022-10-16T01:03:49;6.03;;;1.20;;
4839;SDS011;2434;48.486;7.964;2022-10-16T01:06:27;3.90;;;1.50;;
4839;SDS011;2434;48.486;7.964;2022-10-16T01:09:09;15.57;;;1.67;;
4839;SDS011;2434;48.486;7.964;2022-10-16T01:11:44;4.47;;;1.30;;
4839;SDS011;2434;48.486;7.964;2022-10-16T01:14:22;4.83;;;1.10;;
4839;SDS011;2434;48.486;7.964;2022-10-16T01:16:55;1.20;;;1.10;;
4839;SDS011;2434;48.486;7.964;2022-10-16T01:19:36;1.57;;;0.97;;
4839;SDS011;2434;48.486;7.964;2022-10-16T01:22:18;1.43;;;0.93;;
4839;SDS011;2434;48.486;7.964;2022-10-16T01:24:53;3.13;;;1.40;;
4839;SDS011;2434;48.486;7.964;2022-10-16T01:27:28;4.70;;;0.90;;
4839;SDS011;2434;48.486;7.964;2022-10-16T01:29:59;8.13;;;1.73;;
4839;SDS011;2434;48.486;7.964;2022-10-16T01:32:34;3.73;;;1.60;;
4839;SDS011;2434;48.486;7.964;2022-10-16T01:35:08;2.13;;;1.40;;
4839;SDS011;2434;48.486;7.964;2022-10-16T01:37:40;3.00;;;1.23;;
4839;SDS011;2434;48.486;7.964;2022-10-16T01:40:18;1.97;;;1.20;;
4839;SDS011;2434;48.486;7.964;2022-10-16T01:42:50;8.53;;;1.73;;
4839;SDS011;2434;48.486;7.964;2022-10-16T01:45:22;3.03;;;1.10;;
4839;SDS011;2434;48.486;7.964;2022-10-16T01:47:51;2.30;;;1.20;;
4839;SDS011;2434;48.486;7.964;2022-10-16T01:50:21;2.50;;;1.50;;
4839;SDS011;2434;48.486;7.964;2022-10-16T01:52:50;4.00;;;1.70;;
4839;SDS011;2434;48.486;7.964;2022-10-16T01:55:22;2.80;;;1.73;;
4839;SDS011;2434;48.486;7.964;2022-10-16T01:57:57;13.03;;;1.50;;
4839;SDS011;2434;48.486;7.964;2022-10-16T02:00:27;2.33;;;1.20;;
4839;SDS011;2434;48.486;7.964;2022-10-16T02:02:57;2.17;;;1.13;;
4839;SDS011;2434;48.486;7.964;2022-10-16T02:05:30;1.40;;;1.27;;
4839;SDS011;2434;48.486;7.964;2022-10-16T02:08:01;1.23;;;1.10;;
4839;SDS011;2434;48.486;7.964;2022-10-16T02:10:31;5.23;;;1.53;;
4839;SDS011;2434;48.486;7.964;2022-10-16T02:13:02;6.30;;;1.63;;
4839;SDS011;2434;48.486;7.964;2022-10-16T02:15:34;9.93;;;1.90;;
4839;SDS011;2434;48.486;7.964;2022-10-16T02:18:02;10.90;;;1.77;;
4839;SDS011;2434;48.486;7.964;2022-10-16T02:20:33;8.13;;;1.73;;
4839;SDS011;2434;48.486;7.964;2022-10-16T02:23:07;3.77;;;1.57;;
4839;SDS011;2434;48.486;7.964;2022-10-16T02:25:44;2.50;;;1.30;;
4839;SDS011;2434;48.486;7.964;2022-10-16T02:28:16;6.83;;;1.47;;
4839;SDS011;2434;48.486;7.964;2022-10-16T02:30:51;4.00;;;1.30;;
4839;SDS011;2434;48.486;7.964;2022-10-16T02:33:24;8.83;;;1.00;;
4839;SDS011;2434;48.486;7.964;2022-10-16T02:35:54;3.67;;;1.30;;
4839;SDS011;2434;48.486;7.964;2022-10-16T02:38:25;6.40;;;1.43;;
4839;SDS011;2434;48.486;7.964;2022-10-16T02:40:56;2.20;;;1.17;;
4839;SDS011;2434;48.486;7.964;2022-10-16T02:43:26;5.57;;;1.53;;
4839;SDS011;2434;48.486;7.964;2022-10-16T02:45:55;6.17;;;1.80;;
4839;SDS011;2434;48.486;7.964;2022-10-16T02:48:23;10.90;;;1.90;;
4839;SDS011;2434;48.486;7.964;2022-10-16T02:50:52;7.80;;;1.20;;
4839;SDS011;2434;48.486;7.964;2022-10-16T02:53:20;6.00;;;1.40;;
4839;SDS011;2434;48.486;7.964;2022-10-16T02:55:48;4.00;;;1.33;;
4839;SDS011;2434;48.486;7.964;2022-10-16T02:58:17;5.77;;;1.40;;
4839;SDS011;2434;48.486;7.964;2022-10-16T03:00:47;3.23;;;1.47;;
4839;SDS011;2434;48.486;7.964;2022-10-16T03:03:15;5.13;;;1.90;;
4839;SDS011;2434;48.486;7.964;2022-10-16T03:05:44;1.93;;;1.17;;
4839;SDS011;2434;48.486;7.964;2022-10-16T03:08:13;3.90;;;1.07;;
4839;SDS011;2434;48.486;7.964;2022-10-16T03:10:41;4.10;;;1.10;;
4839;SDS011;2434;48.486;7.964;2022-10-16T03:13:09;2.57;;;1.23;;
4839;SDS011;2434;48.486;7.964;2022-10-16T03:15:38;4.03;;;1.30;;
4839;SDS011;2434;48.486;7.964;2022-10-16T03:18:08;7.93;;;0.93;;
4839;SDS011;2434;48.486;7.964;2022-10-16T03:20:36;8.90;;;1.90;;
4839;SDS011;2434;48.486;7.964;2022-10-16T03:23:04;3.57;;;1.40;;
4839;SDS011;2434;48.486;7.964;2022-10-16T03:25:34;8.10;;;0.97;;
4839;SDS011;2434;48.486;7.964;2022-10-16T03:28:03;3.53;;;1.30;;
4839;SDS011;2434;48.486;7.964;2022-10-16T03:30:31;1.50;;;1.10;;
4839;SDS011;2434;48.486;7.964;2022-10-16T03:33:00;3.70;;;1.57;;
4839;SDS011;2434;48.486;7.964;2022-10-16T03:35:30;1.20;;;1.10;;
4839;SDS011;2434;48.486;7.964;2022-10-16T03:37:59;2.07;;;1.13;;
4839;SDS011;2434;48.486;7.964;2022-10-16T03:40:27;4.43;;;1.40;;
4839;SDS011;2434;48.486;7.964;2022-10-16T03:42:58;1.83;;;0.93;;
4839;SDS011;2434;48.486;7.964;2022-10-16T03:45:27;4.30;;;1.30;;
4839;SDS011;2434;48.486;7.964;2022-10-16T03:47:55;5.23;;;1.10;;
4839;SDS011;2434;48.486;7.964;2022-10-16T03:50:23;3.17;;;1.43;;
4839;SDS011;2434;48.486;7.964;2022-10-16T03:52:53;3.17;;;1.10;;
4839;SDS011;2434;48.486;7.964;2022-10-16T03:55:21;3.17;;;1.37;;
4839;SDS011;2434;48.486;7.964;2022-10-16T03:57:50;3.53;;;1.23;;
4839;SDS011;2434;48.486;7.964;2022-10-16T04:00:18;2.20;;;1.23;;
4839;SDS011;2434;48.486;7.964;2022-10-16T04:02:46;4.37;;;1.20;;
4839;SDS011;2434;48.486;7.964;2022-10-16T04:05:15;2.00;;;1.00;;
4839;SDS011;2434;48.486;7.964;2022-10-16T04:07:43;2.37;;;1.33;;
4839;SDS011;2434;48.486;7.964;2022-10-16T04:10:13;1.70;;;1.33;;
4839;SDS011;2434;48.486;7.964;2022-10-16T04:12:41;1.83;;;1.40;;
4839;SDS011;2434;48.486;7.964;2022-10-16T04:15:10;2.40;;;1.17;;
4839;SDS011;2434;48.486;7.964;2022-10-16T04:17:38;1.70;;;1.50;;
4839;SDS011;2434;48.486;7.964;2022-10-16T04:20:07;7.13;;;1.20;;
4839;SDS011;2434;48.486;7.964;2022-10-16T04:22:36;4.00;;;1.33;;
4839;SDS011;2434;48.486;7.964;2022-10-16T04:25:07;1.63;;;1.53;;
4839;SDS011;2434;48.486;7.964;2022-10-16T04:27:38;2.80;;;1.07;;
4839;SDS011;2434;48.486;7.964;2022-10-16T04:30:11;1.73;;;1.23;;
4839;SDS011;2434;48.486;7.964;2022-10-16T04:32:40;4.30;;;1.33;;
4839;SDS011;2434;48.486;7.964;2022-10-16T04:35:09;5.30;;;1.27;;
4839;SDS011;2434;48.486;7.964;2022-10-16T04:37:37;6.30;;;1.57;;
4839;SDS011;2434;48.486;7.964;2022-10-16T04:40:06;3.00;;;1.50;;
4839;SDS011;2434;48.486;7.964;2022-10-16T04:42:39;7.60;;;1.30;;
4839;SDS011;2434;48.486;7.964;2022-10-16T04:45:08;5.70;;;1.13;;
4839;SDS011;2434;48.486;7.964;2022-10-16T04:47:42;4.87;;;1.07;;
4839;SDS011;2434;48.486;7.964;2022-10-16T04:50:11;7.93;;;1.03;;
4839;SDS011;2434;48.486;7.964;2022-10-16T04:52:39;2.13;;;1.10;;
4839;SDS011;2434;48.486;7.964;2022-10-16T04:55:07;6.20;;;1.00;;
4839;SDS011;2434;48.486;7.964;2022-10-16T04:57:36;9.80;;;1.17;;
4839;SDS011;2434;48.486;7.964;2022-10-16T05:00:06;2.73;;;1.63;;
4839;SDS011;2434;48.486;7.964;2022-10-16T05:02:45;3.87;;;1.30;;
4839;SDS011;2434;48.486;7.964;2022-10-16T05:05:13;7.03;;;1.10;;
4839;SDS011;2434;48.486;7.964;2022-10-16T05:10:45;13.03;;;1.70;;
4839;SDS011;2434;48.486;7.964;2022-10-16T05:13:17;2.30;;;1.40;;
4839;SDS011;2434;48.486;7.964;2022-10-16T05:15:57;1.90;;;1.30;;
4839;SDS011;2434;48.486;7.964;2022-10-16T05:18:25;5.23;;;2.00;;
4839;SDS011;2434;48.486;7.964;2022-10-16T05:20:56;2.87;;;1.47;;
4839;SDS011;2434;48.486;7.964;2022-10-16T05:23:24;1.60;;;1.40;;
4839;SDS011;2434;48.486;7.964;2022-10-16T05:25:56;13.63;;;1.40;;
4839;SDS011;2434;48.486;7.964;2022-10-16T05:28:28;2.30;;;1.30;;
4839;SDS011;2434;48.486;7.964;2022-10-16T05:30:57;1.97;;;1.30;;
4839;SDS011;2434;48.486;7.964;2022-10-16T05:33:26;1.83;;;1.30;;
4839;SDS011;2434;48.486;7.964;2022-10-16T05:36:00;4.77;;;1.70;;
4839;SDS011;2434;48.486;7.964;2022-10-16T05:38:32;6.60;;;1.17;;
4839;SDS011;2434;48.486;7.964;2022-10-16T05:41:02;5.13;;;1.50;;
4839;SDS011;2434;48.486;7.964;2022-10-16T05:43:37;8.50;;;1.43;;
4839;SDS011;2434;48.486;7.964;2022-10-16T05:46:06;2.33;;;1.50;;
4839;SDS011;2434;48.486;7.964;2022-10-16T05:48:34;7.10;;;2.07;;
4839;SDS011;2434;48.486;7.964;2022-10-16T05:51:03;1.80;;;1.27;;
4839;SDS011;2434;48.486;7.964;2022-10-16T05:53:34;3.00;;;1.60;;
4839;SDS011;2434;48.486;7.964;2022-10-16T05:56:03;7.97;;;3.37;;
4839;SDS011;2434;48.486;7.964;2022-10-16T05:58:33;3.93;;;2.60;;
4839;SDS011;2434;48.486;7.964;2022-10-16T06:01:11;4.97;;;2.47;;
4839;SDS011;2434;48.486;7.964;2022-10-16T06:03:41;2.20;;;2.00;;
4839;SDS011;2434;48.486;7.964;2022-10-16T06:06:10;4.20;;;2.50;;
4839;SDS011;2434;48.486;7.964;2022-10-16T06:08:40;8.40;;;3.03;;
4839;SDS011;2434;48.486;7.964;2022-10-16T06:11:09;2.20;;;1.73;;
4839;SDS011;2434;48.486;7.964;2022-10-16T06:13:39;1.80;;;1.60;;
4839;SDS011;2434;48.486;7.964;2022-10-16T06:19:10;8.03;;;1.40;;
4839;SDS011;2434;48.486;7.964;2022-10-16T06:21:42;1.67;;;1.23;;
4839;SDS011;2434;48.486;7.964;2022-10-16T06:24:11;2.53;;;1.13;;
4839;SDS011;2434;48.486;7.964;2022-10-16T06:26:39;4.10;;;1.50;;
4839;SDS011;2434;48.486;7.964;2022-10-16T06:29:08;9.97;;;2.00;;
4839;SDS011;2434;48.486;7.964;2022-10-16T06:31:40;1.30;;;1.20;;
4839;SDS011;2434;48.486;7.964;2022-10-16T06:34:08;2.27;;;1.20;;
4839;SDS011;2434;48.486;7.964;2022-10-16T06:36:38;4.30;;;2.50;;
4839;SDS011;2434;48.486;7.964;2022-10-16T06:39:06;7.77;;;1.80;;
4839;SDS011;2434;48.486;7.964;2022-10-16T06:41:35;3.97;;;1.53;;
4839;SDS011;2434;48.486;7.964;2022-10-16T06:44:13;1.73;;;1.37;;
4839;SDS011;2434;48.486;7.964;2022-10-16T06:46:43;6.30;;;3.00;;
4839;SDS011;2434;48.486;7.964;2022-10-16T06:49:12;3.97;;;2.90;;
4839;SDS011;2434;48.486;7.964;2022-10-16T06:51:42;6.53;;;2.17;;
4839;SDS011;2434;48.486;7.964;2022-10-16T06:54:10;2.83;;;2.10;;
4839;SDS011;2434;48.486;7.964;2022-10-16T06:56:39;3.20;;;2.47;;
4839;SDS011;2434;48.486;7.964;2022-10-16T06:59:08;2.20;;;1.83;;
4839;SDS011;2434;48.486;7.964;2022-10-16T07:01:36;7.10;;;2.40;;
4839;SDS011;2434;48.486;7.964;2022-10-16T07:04:06;2.53;;;2.07;;
4839;SDS011;2434;48.486;7.964;2022-10-16T07:06:34;2.20;;;2.00;;
4839;SDS011;2434;48.486;7.964;2022-10-16T07:09:03;4.77;;;1.70;;
4839;SDS011;2434;48.486;7.964;2022-10-16T07:11:34;1.77;;;1.33;;
4839;SDS011;2434;48.486;7.964;2022-10-16T07:14:03;4.13;;;1.50;;
4839;SDS011;2434;48.486;7.964;2022-10-16T07:16:32;9.30;;;1.67;;
4839;SDS011;2434;48.486;7.964;2022-10-16T07:19:01;3.63;;;1.60;;
4839;SDS011;2434;48.486;7.964;2022-10-16T07:21:32;12.30;;;1.83;;
4839;SDS011;2434;48.486;7.964;2022-10-16T07:24:03;3.77;;;1.60;;
4839;SDS011;2434;48.486;7.964;2022-10-16T07:26:33;4.63;;;1.40;;
4839;SDS011;2434;48.486;7.964;2022-10-16T07:29:02;4.10;;;1.47;;
4839;SDS011;2434;48.486;7.964;2022-10-16T07:31:30;4.40;;;1.53;;
4839;SDS011;2434;48.486;7.964;2022-10-16T07:34:00;3.67;;;1.40;;
4839;SDS011;2434;48.486;7.964;2022-10-16T07:36:28;4.00;;;2.73;;
4839;SDS011;2434;48.486;7.964;2022-10-16T07:38:58;5.73;;;1.53;;
4839;SDS011;2434;48.486;7.964;2022-10-16T07:41:26;5.17;;;1.97;;
4839;SDS011;2434;48.486;7.964;2022-10-16T07:43:55;3.17;;;1.97;;
4839;SDS011;2434;48.486;7.964;2022-10-16T07:46:26;5.37;;;2.90;;
4839;SDS011;2434;48.486;7.964;2022-10-16T07:48:55;1.83;;;1.70;;
4839;SDS011;2434;48.486;7.964;2022-10-16T07:51:24;7.20;;;1.83;;
4839;SDS011;2434;48.486;7.964;2022-10-16T07:53:53;2.13;;;1.60;;
4839;SDS011;2434;48.486;7.964;2022-10-16T07:56:23;6.40;;;1.70;;
4839;SDS011;2434;48.486;7.964;2022-10-16T07:58:52;6.10;;;2.20;;
4839;SDS011;2434;48.486;7.964;2022-10-16T08:01:20;2.00;;;1.40;;
4839;SDS011;2434;48.486;7.964;2022-10-16T08:03:49;5.23;;;1.40;;
4839;SDS011;2434;48.486;7.964;2022-10-16T08:06:19;3.60;;;2.00;;
4839;SDS011;2434;48.486;7.964;2022-10-16T08:08:53;3.40;;;2.00;;
4839;SDS011;2434;48.486;7.964;2022-10-16T08:11:24;5.73;;;2.20;;
4839;SDS011;2434;48.486;7.964;2022-10-16T08:13:52;4.67;;;1.87;;
4839;SDS011;2434;48.486;7.964;2022-10-16T08:16:20;15.30;;;2.30;;
4839;SDS011;2434;48.486;7.964;2022-10-16T08:18:49;1.73;;;1.47;;
4839;SDS011;2434;48.486;7.964;2022-10-16T08:21:19;3.30;;;2.47;;
4839;SDS011;2434;48.486;7.964;2022-10-16T08:23:49;2.13;;;1.67;;
4839;SDS011;2434;48.486;7.964;2022-10-16T08:26:24;4.27;;;2.20;;
4839;SDS011;2434;48.486;7.964;2022-10-16T08:28:54;1.70;;;1.60;;
4839;SDS011;2434;48.486;7.964;2022-10-16T08:31:22;3.40;;;1.90;;
4839;SDS011;2434;48.486;7.964;2022-10-16T08:33:52;6.87;;;1.70;;
4839;SDS011;2434;48.486;7.964;2022-10-16T08:36:21;1.97;;;1.50;;
4839;SDS011;2434;48.486;7.964;2022-10-16T08:38:49;5.93;;;1.70;;
4839;SDS011;2434;48.486;7.964;2022-10-16T08:44:39;5.57;;;1.73;;
4839;SDS011;2434;48.486;7.964;2022-10-16T08:47:22;4.03;;;1.40;;
4839;SDS011;2434;48.486;7.964;2022-10-16T08:49:55;4.93;;;1.67;;
4839;SDS011;2434;48.486;7.964;2022-10-16T08:52:25;6.93;;;1.77;;
4839;SDS011;2434;48.486;7.964;2022-10-16T08:54:58;2.00;;;1.90;;
4839;SDS011;2434;48.486;7.964;2022-10-16T08:57:26;3.73;;;1.67;;
4839;SDS011;2434;48.486;7.964;2022-10-16T08:59:57;5.77;;;2.47;;
4839;SDS011;2434;48.486;7.964;2022-10-16T09:02:29;2.53;;;2.10;;
4839;SDS011;2434;48.486;7.964;2022-10-16T09:05:16;3.67;;;1.80;;
4839;SDS011;2434;48.486;7.964;2022-10-16T09:07:54;6.10;;;1.60;;
4839;SDS011;2434;48.486;7.964;2022-10-16T09:10:36;5.07;;;1.63;;
4839;SDS011;2434;48.486;7.964;2022-10-16T09:13:14;3.57;;;1.00;;
4839;SDS011;2434;48.486;7.964;2022-10-16T09:15:52;7.60;;;1.30;;
4839;SDS011;2434;48.486;7.964;2022-10-16T09:18:29;3.00;;;1.20;;
4839;SDS011;2434;48.486;7.964;2022-10-16T09:21:05;1.17;;;0.90;;
4839;SDS011;2434;48.486;7.964;2022-10-16T09:23:39;5.13;;;1.70;;
4839;SDS011;2434;48.486;7.964;2022-10-16T09:26:09;2.03;;;1.40;;
4839;SDS011;2434;48.486;7.964;2022-10-16T09:28:40;1.63;;;1.53;;
4839;SDS011;2434;48.486;7.964;2022-10-16T09:31:14;6.47;;;1.80;;
4839;SDS011;2434;48.486;7.964;2022-10-16T09:33:45;2.90;;;1.60;;
4839;SDS011;2434;48.486;7.964;2022-10-16T09:36:17;1.37;;;1.20;;
4839;SDS011;2434;48.486;7.964;2022-10-16T09:38:46;4.80;;;1.53;;
4839;SDS011;2434;48.486;7.964;2022-10-16T09:41:17;1.30;;;1.20;;
4839;SDS011;2434;48.486;7.964;2022-10-16T09:43:47;1.50;;;1.10;;
4839;SDS011;2434;48.486;7.964;2022-10-16T09:46:25;1.53;;;1.17;;
4839;SDS011;2434;48.486;7.964;2022-10-16T09:48:56;1.60;;;1.50;;
4839;SDS011;2434;48.486;7.964;2022-10-16T09:51:26;1.80;;;1.70;;
4839;SDS011;2434;48.486;7.964;2022-10-16T09:53:57;2.57;;;1.60;;
4839;SDS011;2434;48.486;7.964;2022-10-16T09:56:28;2.30;;;1.43;;
4839;SDS011;2434;48.486;7.964;2022-10-16T09:58:59;3.17;;;1.37;;
4839;SDS011;2434;48.486;7.964;2022-10-16T10:01:35;7.60;;;1.30;;
4839;SDS011;2434;48.486;7.964;2022-10-16T10:04:05;3.73;;;1.90;;
4839;SDS011;2434;48.486;7.964;2022-10-16T10:06:35;2.30;;;1.33;;
4839;SDS011;2434;48.486;7.964;2022-10-16T10:09:06;1.60;;;1.50;;
4839;SDS011;2434;48.486;7.964;2022-10-16T10:11:45;2.07;;;1.30;;
4839;SDS011;2434;48.486;7.964;2022-10-16T10:14:26;2.50;;;1.60;;
4839;SDS011;2434;48.486;7.964;2022-10-16T10:19:48;5.70;;;2.30;;
4839;SDS011;2434;48.486;7.964;2022-10-16T10:22:21;2.37;;;1.50;;
4839;SDS011;2434;48.486;7.964;2022-10-16T10:24:55;1.50;;;1.40;;
4839;SDS011;2434;48.486;7.964;2022-10-16T10:27:30;1.77;;;1.67;;
4839;SDS011;2434;48.486;7.964;2022-10-16T10:30:05;6.67;;;2.20;;
4839;SDS011;2434;48.486;7.964;2022-10-16T10:32:53;8.77;;;1.53;;
4839;SDS011;2434;48.486;7.964;2022-10-16T10:35:35;3.90;;;1.73;;
4839;SDS011;2434;48.486;7.964;2022-10-16T10:38:22;5.33;;;1.80;;
4839;SDS011;2434;48.486;7.964;2022-10-16T10:41:04;4.80;;;1.60;;
4839;SDS011;2434;48.486;7.964;2022-10-16T10:43:50;2.20;;;1.50;;
4839;SDS011;2434;48.486;7.964;2022-10-16T10:46:29;2.70;;;1.57;;
4839;SDS011;2434;48.486;7.964;2022-10-16T10:49:19;3.07;;;1.60;;
4839;SDS011;2434;48.486;7.964;2022-10-16T10:52:01;5.27;;;1.60;;
4839;SDS011;2434;48.486;7.964;2022-10-16T10:54:41;2.20;;;1.57;;
4839;SDS011;2434;48.486;7.964;2022-10-16T10:57:23;5.57;;;1.83;;
4839;SDS011;2434;48.486;7.964;2022-10-16T11:00:06;5.43;;;2.40;;
4839;SDS011;2434;48.486;7.964;2022-10-16T11:02:45;3.40;;;2.10;;
4839;SDS011;2434;48.486;7.964;2022-10-16T11:05:26;6.10;;;2.13;;
4839;SDS011;2434;48.486;7.964;2022-10-16T11:08:00;6.03;;;2.30;;
4839;SDS011;2434;48.486;7.964;2022-10-16T11:10:33;3.00;;;1.80;;
4839;SDS011;2434;48.486;7.964;2022-10-16T11:13:09;3.40;;;2.37;;
4839;SDS011;2434;48.486;7.964;2022-10-16T11:15:48;4.73;;;2.43;;
4839;SDS011;2434;48.486;7.964;2022-10-16T11:18:22;2.53;;;1.80;;
4839;SDS011;2434;48.486;7.964;2022-10-16T11:20:59;2.27;;;1.43;;
4839;SDS011;2434;48.486;7.964;2022-10-16T11:23:33;2.70;;;1.70;;
4839;SDS011;2434;48.486;7.964;2022-10-16T11:26:10;6.17;;;2.40;;
4839;SDS011;2434;48.486;7.964;2022-10-16T11:28:45;3.40;;;1.93;;
4839;SDS011;2434;48.486;7.964;2022-10-16T11:31:16;3.97;;;2.50;;
4839;SDS011;2434;48.486;7.964;2022-10-16T11:33:51;6.60;;;2.20;;
4839;SDS011;2434;48.486;7.964;2022-10-16T11:36:27;3.47;;;2.60;;
4839;SDS011;2434;48.486;7.964;2022-10-16T11:39:02;4.87;;;1.77;;
4839;SDS011;2434;48.486;7.964;2022-10-16T11:41:39;4.03;;;2.23;;
4839;SDS011;2434;48.486;7.964;2022-10-16T11:44:15;2.70;;;2.40;;
4839;SDS011;2434;48.486;7.964;2022-10-16T11:46:59;7.50;;;2.37;;
4839;SDS011;2434;48.486;7.964;2022-10-16T11:49:57;3.73;;;2.50;;
4839;SDS011;2434;48.486;7.964;2022-10-16T11:52:31;5.37;;;1.80;;
4839;SDS011;2434;48.486;7.964;2022-10-16T11:55:05;5.03;;;1.93;;
4839;SDS011;2434;48.486;7.964;2022-10-16T11:57:43;4.33;;;1.70;;
4839;SDS011;2434;48.486;7.964;2022-10-16T12:00:17;3.43;;;1.60;;
4839;SDS011;2434;48.486;7.964;2022-10-16T12:02:51;4.10;;;1.40;;
4839;SDS011;2434;48.486;7.964;2022-10-16T12:05:28;13.03;;;1.70;;
4839;SDS011;2434;48.486;7.964;2022-10-16T12:08:10;5.30;;;1.83;;
4839;SDS011;2434;48.486;7.964;2022-10-16T12:10:40;4.90;;;1.63;;
4839;SDS011;2434;48.486;7.964;2022-10-16T12:13:30;3.57;;;2.10;;
4839;SDS011;2434;48.486;7.964;2022-10-16T12:16:06;3.73;;;1.60;;
4839;SDS011;2434;48.486;7.964;2022-10-16T12:18:48;3.60;;;2.10;;
4839;SDS011;2434;48.486;7.964;2022-10-16T12:21:17;4.70;;;1.77;;
4839;SDS011;2434;48.486;7.964;2022-10-16T12:23:49;6.10;;;2.20;;
4839;SDS011;2434;48.486;7.964;2022-10-16T12:26:24;3.90;;;2.40;;
4839;SDS011;2434;48.486;7.964;2022-10-16T12:28:54;2.90;;;2.63;;
4839;SDS011;2434;48.486;7.964;2022-10-16T12:31:23;3.77;;;2.30;;
4839;SDS011;2434;48.486;7.964;2022-10-16T12:34:14;4.33;;;2.30;;
4839;SDS011;2434;48.486;7.964;2022-10-16T12:36:50;2.63;;;2.43;;
4839;SDS011;2434;48.486;7.964;2022-10-16T12:39:21;5.60;;;2.60;;
4839;SDS011;2434;48.486;7.964;2022-10-16T12:42:01;6.83;;;2.40;;
4839;SDS011;2434;48.486;7.964;2022-10-16T12:44:34;6.63;;;2.47;;
4839;SDS011;2434;48.486;7.964;2022-10-16T12:47:03;2.03;;;1.80;;
4839;SDS011;2434;48.486;7.964;2022-10-16T12:49:36;9.07;;;2.17;;
4839;SDS011;2434;48.486;7.964;2022-10-16T12:54:57;1.73;;;1.63;;
4839;SDS011;2434;48.486;7.964;2022-10-16T12:57:31;1.93;;;1.83;;
4839;SDS011;2434;48.486;7.964;2022-10-16T13:00:11;5.53;;;2.40;;
4839;SDS011;2434;48.486;7.964;2022-10-16T13:06:04;3.00;;;2.07;;
4839;SDS011;2434;48.486;7.964;2022-10-16T13:08:46;3.03;;;2.00;;
4839;SDS011;2434;48.486;7.964;2022-10-16T13:11:36;2.33;;;2.10;;
4839;SDS011;2434;48.486;7.964;2022-10-16T13:17:22;3.27;;;1.80;;
4839;SDS011;2434;48.486;7.964;2022-10-16T13:20:01;2.30;;;2.00;;
4839;SDS011;2434;48.486;7.964;2022-10-16T13:22:39;2.40;;;2.20;;
4839;SDS011;2434;48.486;7.964;2022-10-16T13:25:17;3.97;;;2.50;;
4839;SDS011;2434;48.486;7.964;2022-10-16T13:27:54;6.70;;;3.00;;
4839;SDS011;2434;48.486;7.964;2022-10-16T13:30:24;2.77;;;2.57;;
4839;SDS011;2434;48.486;7.964;2022-10-16T13:32:58;3.40;;;3.10;;
4839;SDS011;2434;48.486;7.964;2022-10-16T13:35:29;2.40;;;2.20;;
4839;SDS011;2434;48.486;7.964;2022-10-16T13:38:05;2.20;;;2.00;;
4839;SDS011;2434;48.486;7.964;2022-10-16T13:40:50;3.70;;;2.10;;
4839;SDS011;2434;48.486;7.964;2022-10-16T13:43:23;6.87;;;2.00;;
4839;SDS011;2434;48.486;7.964;2022-10-16T13:45:55;3.57;;;1.90;;
4839;SDS011;2434;48.486;7.964;2022-10-16T13:48:24;5.13;;;2.40;;
4839;SDS011;2434;48.486;7.964;2022-10-16T13:51:00;3.37;;;1.83;;
4839;SDS011;2434;48.486;7.964;2022-10-16T13:53:30;1.77;;;1.50;;
4839;SDS011;2434;48.486;7.964;2022-10-16T13:55:59;2.27;;;2.07;;
4839;SDS011;2434;48.486;7.964;2022-10-16T13:58:31;1.53;;;1.43;;
4839;SDS011;2434;48.486;7.964;2022-10-16T14:01:00;6.63;;;1.77;;
4839;SDS011;2434;48.486;7.964;2022-10-16T14:03:31;2.63;;;2.10;;
4839;SDS011;2434;48.486;7.964;2022-10-16T14:06:02;4.37;;;2.00;;
4839;SDS011;2434;48.486;7.964;2022-10-16T14:08:35;3.17;;;2.10;;
4839;SDS011;2434;48.486;7.964;2022-10-16T14:11:03;1.40;;;1.30;;
4839;SDS011;2434;48.486;7.964;2022-10-16T14:13:34;4.30;;;1.80;;
4839;SDS011;2434;48.486;7.964;2022-10-16T14:16:06;4.20;;;1.80;;
4839;SDS011;2434;48.486;7.964;2022-10-16T14:18:36;1.90;;;1.10;;
4839;SDS011;2434;48.486;7.964;2022-10-16T14:21:07;1.63;;;1.53;;
4839;SDS011;2434;48.486;7.964;2022-10-16T14:23:41;2.83;;;1.70;;
4839;SDS011;2434;48.486;7.964;2022-10-16T14:26:14;3.20;;;2.00;;
4839;SDS011;2434;48.486;7.964;2022-10-16T14:28:46;5.83;;;2.33;;
4839;SDS011;2434;48.486;7.964;2022-10-16T14:31:26;6.63;;;1.70;;
4839;SDS011;2434;48.486;7.964;2022-10-16T14:33:55;2.83;;;1.60;;
4839;SDS011;2434;48.486;7.964;2022-10-16T14:36:24;8.80;;;2.00;;
4839;SDS011;2434;48.486;7.964;2022-10-16T14:38:58;5.43;;;1.47;;
4839;SDS011;2434;48.486;7.964;2022-10-16T14:41:29;6.00;;;2.20;;
4839;SDS011;2434;48.486;7.964;2022-10-16T14:44:00;7.03;;;2.30;;
4839;SDS011;2434;48.486;7.964;2022-10-16T14:46:32;1.57;;;1.47;;
4839;SDS011;2434;48.486;7.964;2022-10-16T14:49:03;3.30;;;1.93;;
4839;SDS011;2434;48.486;7.964;2022-10-16T14:51:41;1.80;;;1.70;;
4839;SDS011;2434;48.486;7.964;2022-10-16T14:54:11;6.00;;;2.10;;
4839;SDS011;2434;48.486;7.964;2022-10-16T14:56:45;5.93;;;2.00;;
4839;SDS011;2434;48.486;7.964;2022-10-16T14:59:17;2.13;;;2.03;;
4839;SDS011;2434;48.486;7.964;2022-10-16T15:01:49;2.20;;;2.00;;
4839;SDS011;2434;48.486;7.964;2022-10-16T15:04:17;3.43;;;1.83;;
4839;SDS011;2434;48.486;7.964;2022-10-16T15:06:46;2.50;;;2.13;;
4839;SDS011;2434;48.486;7.964;2022-10-16T15:09:14;4.83;;;1.80;;
4839;SDS011;2434;48.486;7.964;2022-10-16T15:11:42;3.60;;;2.20;;
4839;SDS011;2434;48.486;7.964;2022-10-16T15:14:11;3.40;;;1.90;;
4839;SDS011;2434;48.486;7.964;2022-10-16T15:16:41;1.80;;;1.70;;
4839;SDS011;2434;48.486;7.964;2022-10-16T15:19:09;3.27;;;1.77;;
4839;SDS011;2434;48.486;7.964;2022-10-16T15:21:37;4.60;;;2.20;;
4839;SDS011;2434;48.486;7.964;2022-10-16T15:24:07;8.27;;;3.30;;
4839;SDS011;2434;48.486;7.964;2022-10-16T15:26:44;3.40;;;2.80;;
4839;SDS011;2434;48.486;7.964;2022-10-16T15:29:13;7.03;;;2.90;;
4839;SDS011;2434;48.486;7.964;2022-10-16T15:31:43;3.00;;;2.80;;
4839;SDS011;2434;48.486;7.964;2022-10-16T15:34:13;4.83;;;2.20;;
4839;SDS011;2434;48.486;7.964;2022-10-16T15:36:42;3.23;;;1.83;;
4839;SDS011;2434;48.486;7.964;2022-10-16T15:39:12;10.23;;;3.03;;
4839;SDS011;2434;48.486;7.964;2022-10-16T15:41:42;9.70;;;3.37;;
4839;SDS011;2434;48.486;7.964;2022-10-16T15:44:11;3.50;;;2.70;;
4839;SDS011;2434;48.486;7.964;2022-10-16T15:46:40;2.63;;;2.33;;
4839;SDS011;2434;48.486;7.964;2022-10-16T15:49:09;7.53;;;2.60;;
4839;SDS011;2434;48.486;7.964;2022-10-16T15:51:41;2.13;;;2.00;;
4839;SDS011;2434;48.486;7.964;2022-10-16T15:54:09;3.43;;;2.63;;
4839;SDS011;2434;48.486;7.964;2022-10-16T15:56:37;5.73;;;2.70;;
4839;SDS011;2434;48.486;7.964;2022-10-16T15:59:06;4.03;;;2.80;;
4839;SDS011;2434;48.486;7.964;2022-10-16T16:01:35;7.00;;;3.70;;
4839;SDS011;2434;48.486;7.964;2022-10-16T16:04:25;3.73;;;3.30;;
4839;SDS011;2434;48.486;7.964;2022-10-16T16:07:10;4.57;;;3.20;;